Arcadia, MI

9:32 AM EDT on August 28, 2014 (GMT -0400)
Benzie | Change Station
CLOSE
Current Station
Personal Weather Station
Location: Benzonia, MI
Elevation: 811 ft
Nearby Weather Stations

Elev 811 ft 44.54 °N, 86.11 °W | Updated 2 minutes ago

Mostly Cloudy
Mostly Cloudy
60.0 °F
Feels Like 60.0 °F
N
0.0
Wind Variable Wind from SSE
Gusts 0.0 mph

Today
High -- | Low -- °F
--% Chance of Precip.
Yesterday
High -- | Low -- °F
Precip. -- in
7:02 AM 8:28 PM
Waxing Crescent, 8% visible
Pressure 30.19 in
Visibility 10.0 miles
Clouds Clear
Dew Point 51 °F
Humidity 72%
Rainfall 0.00 in
Snow Depth Not available.
UV 2 out of 12
Pollen 9.40 out of 12
Ozone Good
PM2.5 Good
Flu Activity Not available.
METAR KFKS 281313Z AUTO 00000KT 10SM CLR 15/09 A3019 RMK AO2 T01510089

More Conditions Fewer Conditions

Pressure 30.19 in
Visibility 10.0 miles
Clouds Clear
Dew Point 51 °F
Humidity 72%
Rainfall 0.00 in
Snow Depth Not available.
UV 2 out of 12
Pollen 9.40 out of 12
Ozone Good
PM2.5 Good
Flu Activity Not available.
METAR KFKS 281313Z AUTO 00000KT 10SM CLR 15/09 A3019 RMK AO2 T01510089

More Conditions Fewer Conditions

Nowcast | as of 9:00 am EDT on August 28, 2014

At 10 am...mostly clear. Temperature 57. Light winds. At 12 PM...mostly clear. Temperature 66. Northeast winds 6 mph. At 2 PM...mostly clear. Temperature 69. Northwest winds 7 mph. At 4 PM...partly cloudy. Temperature 70. Northwest winds 8 mph.

×

10-Day Weather Forecast

Almanac

Astronomy

Aug. 28, 2014 Rise Set
Actual Time 7:02 AM EDT 8:28 PM EDT
Civil Twilight 6:32 AM EDT 8:58 PM EDT
Nautical Twilight 5:55 AM EDT 9:35 PM EDT
Astronomical Twilight 5:16 AM EDT 10:14 PM EDT
Moon 10:03 AM EDT 9:42 PM EDT
Length of Visible Light 14h 26m
Length of Day
13h 25m
Tomorrow will be 2m 55s shorter.
Waxing Crescent, 8% of the Moon is Illuminated
Today
Waxing Crescent
Sep 2
First Quarter
Sep 8
Full
Sep 15
Last Quarter
Sep 24
New

Today's Extremes

State Highs State Lows

Community

WunderPhotos

Upload Photos

1,747,947 photos uploaded!

Nearby

Air Quality

  Air Quality AQ Index Pollutant
Yesterday Good
OZONE
Yesterday Good
PM2.5
Current Good
PM2.5
Current Good
OZONE
Thursday Good
OZONE
Thursday Good
PM2.5
Friday Good
OZONE
Friday Good
PM2.5

Snow Depth

Station Depth Elevation
No new snow has been reported.

Earthquake Activity

City Distance Mag. Time & Date
No recent earthquake activity has been reported nearby.
Minimum magnitude displayed is 2.5.

Coastal Water Temperatures

Place Temperature
No Stations Reporting

Nearby Weather Stations